Decoded Metar for KELY (ELY in NV, USA) (IATA:ELY) | Meteo·Mobile Aviation Weather
aviador You're here:

KELY Decoded Metar

ELY in NV, USA
Report Time2018-08-19 13:53:00
UTC Time2018-08-19 14:05:55
Flight Rules vfr VFR
Wind170° at 09 kt
W.Decomp.*RWY 18: 8.2 kt HW 3.7 kt LCW
RWY 12: 7.3 kt HW 5.3 kt RCW
W.Rank170° ranks 1
Current wind is below 170° avg. (9.5)
Visibility9999 m
Phenomena:N/A
Clouds:N/A
Expected CloudBase > 4,800 ft AGL from Temp-Dew spread
CeilingNone
Temp08°C (ISA +5)
Dew Point-4°C (43% RH)
AAT2.3°C
QNH1027 hPa
Density Alt6,493 ft
Elevation6,253 ft
Report Wrong Elevation
Raw Report
KELY 191353Z AUTO 17009KT 7SM CLR 08/M04 A3033 RMK AO2 SLP180
T00831044=

Extra information for KELY:More info

Metar Taf Metar & Taf Last 4 Metars F.Rules Stats Wind Profile Meteogram Temp Stats Airport Information Weather charts Add Link Nearby VenuesMetar ALERT Operation Metar Decoded Social comments

AIRNAV info for KELY